sensor_id;sensor_type;location;lat;lon;timestamp;temperature;humidity
45044;DHT22;30784;48.490;9.688;2023-04-03T00:01:06;6.40;57.50
45044;DHT22;30784;48.490;9.688;2023-04-03T00:03:32;6.40;57.40
45044;DHT22;30784;48.490;9.688;2023-04-03T00:05:58;6.30;57.30
45044;DHT22;30784;48.490;9.688;2023-04-03T00:08:24;6.30;57.40
45044;DHT22;30784;48.490;9.688;2023-04-03T00:10:50;6.30;57.40
45044;DHT22;30784;48.490;9.688;2023-04-03T00:13:15;6.30;57.20
45044;DHT22;30784;48.490;9.688;2023-04-03T00:15:41;6.30;57.40
45044;DHT22;30784;48.490;9.688;2023-04-03T00:18:07;6.30;57.30
45044;DHT22;30784;48.490;9.688;2023-04-03T00:20:33;6.30;57.40
45044;DHT22;30784;48.490;9.688;2023-04-03T00:22:59;6.30;57.30
45044;DHT22;30784;48.490;9.688;2023-04-03T00:25:25;6.30;57.30
45044;DHT22;30784;48.490;9.688;2023-04-03T00:27:50;6.30;57.30
45044;DHT22;30784;48.490;9.688;2023-04-03T00:30:19;6.20;57.10
45044;DHT22;30784;48.490;9.688;2023-04-03T00:32:44;6.20;57.20
45044;DHT22;30784;48.490;9.688;2023-04-03T00:35:10;6.20;57.20
45044;DHT22;30784;48.490;9.688;2023-04-03T00:37:36;6.20;57.10
45044;DHT22;30784;48.490;9.688;2023-04-03T00:40:02;6.20;57.00
45044;DHT22;30784;48.490;9.688;2023-04-03T00:42:28;6.20;57.00
45044;DHT22;30784;48.490;9.688;2023-04-03T00:47:23;6.10;56.70
45044;DHT22;30784;48.490;9.688;2023-04-03T00:49:49;6.10;56.70
45044;DHT22;30784;48.490;9.688;2023-04-03T00:52:17;6.10;56.70
45044;DHT22;30784;48.490;9.688;2023-04-03T00:54:46;6.10;56.60
45044;DHT22;30784;48.490;9.688;2023-04-03T00:57:12;6.10;56.50
45044;DHT22;30784;48.490;9.688;2023-04-03T00:59:42;6.00;56.50
45044;DHT22;30784;48.490;9.688;2023-04-03T01:02:10;6.00;56.50
45044;DHT22;30784;48.490;9.688;2023-04-03T01:04:41;6.00;56.50
45044;DHT22;30784;48.490;9.688;2023-04-03T01:09:34;6.00;56.30
45044;DHT22;30784;48.490;9.688;2023-04-03T01:12:16;6.00;56.40
45044;DHT22;30784;48.490;9.688;2023-04-03T01:14:43;6.00;56.50
45044;DHT22;30784;48.490;9.688;2023-04-03T01:19:57;5.90;56.40
45044;DHT22;30784;48.490;9.688;2023-04-03T01:22:30;5.90;56.30
45044;DHT22;30784;48.490;9.688;2023-04-03T01:24:59;6.00;56.10
45044;DHT22;30784;48.490;9.688;2023-04-03T01:27:24;5.90;56.10
45044;DHT22;30784;48.490;9.688;2023-04-03T01:29:50;5.90;56.00
45044;DHT22;30784;48.490;9.688;2023-04-03T01:32:15;5.90;55.90
45044;DHT22;30784;48.490;9.688;2023-04-03T01:34:41;5.90;55.80
45044;DHT22;30784;48.490;9.688;2023-04-03T01:37:06;5.90;55.90
45044;DHT22;30784;48.490;9.688;2023-04-03T01:42:54;5.90;55.90
45044;DHT22;30784;48.490;9.688;2023-04-03T01:45:20;5.80;55.60
45044;DHT22;30784;48.490;9.688;2023-04-03T01:47:45;5.80;55.80
45044;DHT22;30784;48.490;9.688;2023-04-03T01:50:11;5.80;55.50
45044;DHT22;30784;48.490;9.688;2023-04-03T01:52:36;5.80;55.50
45044;DHT22;30784;48.490;9.688;2023-04-03T01:55:02;5.80;55.30
45044;DHT22;30784;48.490;9.688;2023-04-03T01:57:28;5.80;55.50
45044;DHT22;30784;48.490;9.688;2023-04-03T01:59:53;5.70;55.10
45044;DHT22;30784;48.490;9.688;2023-04-03T02:02:19;5.70;55.00
45044;DHT22;30784;48.490;9.688;2023-04-03T02:04:46;5.70;55.00
45044;DHT22;30784;48.490;9.688;2023-04-03T02:07:11;5.60;55.00
45044;DHT22;30784;48.490;9.688;2023-04-03T02:09:37;5.60;55.00
45044;DHT22;30784;48.490;9.688;2023-04-03T02:12:02;5.60;55.10
45044;DHT22;30784;48.490;9.688;2023-04-03T02:14:28;5.50;54.90
45044;DHT22;30784;48.490;9.688;2023-04-03T02:16:54;5.50;55.10
45044;DHT22;30784;48.490;9.688;2023-04-03T02:19:19;5.50;55.20
45044;DHT22;30784;48.490;9.688;2023-04-03T02:21:45;5.50;55.10
45044;DHT22;30784;48.490;9.688;2023-04-03T02:24:11;5.50;55.20
45044;DHT22;30784;48.490;9.688;2023-04-03T02:26:36;5.50;55.20
45044;DHT22;30784;48.490;9.688;2023-04-03T02:29:02;5.50;55.30
45044;DHT22;30784;48.490;9.688;2023-04-03T02:31:28;5.50;55.40
45044;DHT22;30784;48.490;9.688;2023-04-03T02:33:53;5.40;55.40
45044;DHT22;30784;48.490;9.688;2023-04-03T02:36:19;5.50;55.50
45044;DHT22;30784;48.490;9.688;2023-04-03T02:38:44;5.40;55.50
45044;DHT22;30784;48.490;9.688;2023-04-03T02:41:12;5.50;55.60
45044;DHT22;30784;48.490;9.688;2023-04-03T02:43:38;5.50;55.50
45044;DHT22;30784;48.490;9.688;2023-04-03T02:46:05;5.50;55.10
45044;DHT22;30784;48.490;9.688;2023-04-03T02:48:31;5.50;54.80
45044;DHT22;30784;48.490;9.688;2023-04-03T02:50:56;5.50;54.20
45044;DHT22;30784;48.490;9.688;2023-04-03T02:53:22;5.50;54.30
45044;DHT22;30784;48.490;9.688;2023-04-03T02:55:48;5.40;54.20
45044;DHT22;30784;48.490;9.688;2023-04-03T02:58:14;5.50;54.20
45044;DHT22;30784;48.490;9.688;2023-04-03T03:00:39;5.40;54.10
45044;DHT22;30784;48.490;9.688;2023-04-03T03:03:05;5.40;54.00
45044;DHT22;30784;48.490;9.688;2023-04-03T03:05:31;5.40;53.00
45044;DHT22;30784;48.490;9.688;2023-04-03T03:07:56;5.40;53.10
45044;DHT22;30784;48.490;9.688;2023-04-03T03:10:23;5.40;53.10
45044;DHT22;30784;48.490;9.688;2023-04-03T03:12:49;5.30;53.30
45044;DHT22;30784;48.490;9.688;2023-04-03T03:15:15;5.30;53.30
45044;DHT22;30784;48.490;9.688;2023-04-03T03:17:41;5.30;53.30
45044;DHT22;30784;48.490;9.688;2023-04-03T03:20:07;5.30;53.40
45044;DHT22;30784;48.490;9.688;2023-04-03T03:22:33;5.30;53.60
45044;DHT22;30784;48.490;9.688;2023-04-03T03:24:59;5.30;52.60
45044;DHT22;30784;48.490;9.688;2023-04-03T03:27:26;5.30;52.70
45044;DHT22;30784;48.490;9.688;2023-04-03T03:29:51;5.30;52.80
45044;DHT22;30784;48.490;9.688;2023-04-03T03:32:17;5.20;52.80
45044;DHT22;30784;48.490;9.688;2023-04-03T03:34:42;5.20;53.10
45044;DHT22;30784;48.490;9.688;2023-04-03T03:37:08;5.20;52.90
45044;DHT22;30784;48.490;9.688;2023-04-03T03:39:34;5.20;53.10
45044;DHT22;30784;48.490;9.688;2023-04-03T03:41:59;5.20;52.70
45044;DHT22;30784;48.490;9.688;2023-04-03T03:44:25;5.30;52.30
45044;DHT22;30784;48.490;9.688;2023-04-03T03:46:51;5.20;52.30
45044;DHT22;30784;48.490;9.688;2023-04-03T03:49:16;5.20;52.40
45044;DHT22;30784;48.490;9.688;2023-04-03T03:51:42;5.20;52.40
45044;DHT22;30784;48.490;9.688;2023-04-03T03:54:07;5.20;52.20
45044;DHT22;30784;48.490;9.688;2023-04-03T03:56:33;5.20;52.20
45044;DHT22;30784;48.490;9.688;2023-04-03T03:58:59;5.20;52.50
45044;DHT22;30784;48.490;9.688;2023-04-03T04:01:24;5.20;52.30
45044;DHT22;30784;48.490;9.688;2023-04-03T04:03:50;5.20;52.30
45044;DHT22;30784;48.490;9.688;2023-04-03T04:06:16;5.20;52.30
45044;DHT22;30784;48.490;9.688;2023-04-03T04:08:42;5.20;52.20
45044;DHT22;30784;48.490;9.688;2023-04-03T04:11:08;5.20;51.50
45044;DHT22;30784;48.490;9.688;2023-04-03T04:13:34;5.10;51.70
45044;DHT22;30784;48.490;9.688;2023-04-03T04:16:00;5.20;51.40
45044;DHT22;30784;48.490;9.688;2023-04-03T04:18:25;5.10;51.50
45044;DHT22;30784;48.490;9.688;2023-04-03T04:20:51;5.10;51.50
45044;DHT22;30784;48.490;9.688;2023-04-03T04:23:17;5.10;51.10
45044;DHT22;30784;48.490;9.688;2023-04-03T04:25:46;5.10;50.70
45044;DHT22;30784;48.490;9.688;2023-04-03T04:28:12;5.10;50.90
45044;DHT22;30784;48.490;9.688;2023-04-03T04:30:38;5.10;50.90
45044;DHT22;30784;48.490;9.688;2023-04-03T04:33:04;5.00;51.00
45044;DHT22;30784;48.490;9.688;2023-04-03T04:35:30;5.10;51.00
45044;DHT22;30784;48.490;9.688;2023-04-03T04:37:55;5.00;50.90
45044;DHT22;30784;48.490;9.688;2023-04-03T04:40:21;5.00;51.10
45044;DHT22;30784;48.490;9.688;2023-04-03T04:42:47;5.10;50.90
45044;DHT22;30784;48.490;9.688;2023-04-03T04:45:13;5.00;50.90
45044;DHT22;30784;48.490;9.688;2023-04-03T04:47:41;5.00;50.50
45044;DHT22;30784;48.490;9.688;2023-04-03T04:50:07;5.00;50.60
45044;DHT22;30784;48.490;9.688;2023-04-03T04:52:32;5.00;50.70
45044;DHT22;30784;48.490;9.688;2023-04-03T04:54:58;5.00;50.60
45044;DHT22;30784;48.490;9.688;2023-04-03T04:57:24;5.00;50.40
45044;DHT22;30784;48.490;9.688;2023-04-03T04:59:49;5.00;50.40
45044;DHT22;30784;48.490;9.688;2023-04-03T05:02:15;5.00;50.50
45044;DHT22;30784;48.490;9.688;2023-04-03T05:04:41;5.00;50.50
45044;DHT22;30784;48.490;9.688;2023-04-03T05:07:06;5.00;50.60
45044;DHT22;30784;48.490;9.688;2023-04-03T05:09:32;5.00;50.80
45044;DHT22;30784;48.490;9.688;2023-04-03T05:11:57;5.00;51.20
45044;DHT22;30784;48.490;9.688;2023-04-03T05:14:23;5.00;50.70
45044;DHT22;30784;48.490;9.688;2023-04-03T05:16:48;5.10;50.80
45044;DHT22;30784;48.490;9.688;2023-04-03T05:19:18;5.10;51.00
45044;DHT22;30784;48.490;9.688;2023-04-03T05:21:43;5.10;50.90
45044;DHT22;30784;48.490;9.688;2023-04-03T05:24:09;5.10;50.90
45044;DHT22;30784;48.490;9.688;2023-04-03T05:26:34;5.10;51.00
45044;DHT22;30784;48.490;9.688;2023-04-03T05:29:00;5.10;51.00
45044;DHT22;30784;48.490;9.688;2023-04-03T05:31:26;5.20;51.20
45044;DHT22;30784;48.490;9.688;2023-04-03T05:33:54;5.20;51.10
45044;DHT22;30784;48.490;9.688;2023-04-03T05:36:20;5.20;50.90
45044;DHT22;30784;48.490;9.688;2023-04-03T05:38:46;5.20;50.90
45044;DHT22;30784;48.490;9.688;2023-04-03T05:41:11;5.20;50.90
45044;DHT22;30784;48.490;9.688;2023-04-03T05:43:37;5.20;51.00
45044;DHT22;30784;48.490;9.688;2023-04-03T05:46:08;5.20;51.10
45044;DHT22;30784;48.490;9.688;2023-04-03T05:48:33;5.30;51.00
45044;DHT22;30784;48.490;9.688;2023-04-03T05:50:59;5.30;51.00
45044;DHT22;30784;48.490;9.688;2023-04-03T05:53:28;5.30;51.00
45044;DHT22;30784;48.490;9.688;2023-04-03T05:55:54;5.30;50.80
45044;DHT22;30784;48.490;9.688;2023-04-03T05:58:20;5.30;51.20
45044;DHT22;30784;48.490;9.688;2023-04-03T06:00:45;5.30;51.00
45044;DHT22;30784;48.490;9.688;2023-04-03T06:03:11;5.30;50.90
45044;DHT22;30784;48.490;9.688;2023-04-03T06:05:37;5.30;51.00
45044;DHT22;30784;48.490;9.688;2023-04-03T06:08:02;5.40;50.90
45044;DHT22;30784;48.490;9.688;2023-04-03T06:10:29;5.30;50.80
45044;DHT22;30784;48.490;9.688;2023-04-03T06:12:55;5.30;50.90
45044;DHT22;30784;48.490;9.688;2023-04-03T06:15:21;5.40;50.90
45044;DHT22;30784;48.490;9.688;2023-04-03T06:17:47;5.40;51.00
45044;DHT22;30784;48.490;9.688;2023-04-03T06:20:13;5.40;50.90
45044;DHT22;30784;48.490;9.688;2023-04-03T06:22:39;5.40;50.80
45044;DHT22;30784;48.490;9.688;2023-04-03T06:25:05;5.40;50.90
45044;DHT22;30784;48.490;9.688;2023-04-03T06:27:31;5.40;51.00
45044;DHT22;30784;48.490;9.688;2023-04-03T06:29:57;5.40;51.10
45044;DHT22;30784;48.490;9.688;2023-04-03T06:32:22;5.40;51.00
45044;DHT22;30784;48.490;9.688;2023-04-03T06:34:48;5.40;51.10
45044;DHT22;30784;48.490;9.688;2023-04-03T06:37:18;5.40;51.10
45044;DHT22;30784;48.490;9.688;2023-04-03T06:39:45;5.40;51.20
45044;DHT22;30784;48.490;9.688;2023-04-03T06:42:11;5.40;51.20
45044;DHT22;30784;48.490;9.688;2023-04-03T06:44:36;5.40;51.30
45044;DHT22;30784;48.490;9.688;2023-04-03T06:47:02;5.40;51.30
45044;DHT22;30784;48.490;9.688;2023-04-03T06:49:28;5.50;51.30
45044;DHT22;30784;48.490;9.688;2023-04-03T06:51:54;5.50;51.30
45044;DHT22;30784;48.490;9.688;2023-04-03T06:54:20;5.50;51.30
45044;DHT22;30784;48.490;9.688;2023-04-03T06:56:46;5.50;51.30
45044;DHT22;30784;48.490;9.688;2023-04-03T06:59:12;5.50;51.30
45044;DHT22;30784;48.490;9.688;2023-04-03T07:01:40;5.50;51.30
45044;DHT22;30784;48.490;9.688;2023-04-03T07:04:07;5.50;51.30
45044;DHT22;30784;48.490;9.688;2023-04-03T07:06:33;5.50;51.30
45044;DHT22;30784;48.490;9.688;2023-04-03T07:08:59;5.60;51.40
45044;DHT22;30784;48.490;9.688;2023-04-03T07:11:25;5.60;51.40
45044;DHT22;30784;48.490;9.688;2023-04-03T07:13:51;5.60;51.40
45044;DHT22;30784;48.490;9.688;2023-04-03T07:16:17;5.60;51.40
45044;DHT22;30784;48.490;9.688;2023-04-03T07:18:44;5.70;51.40
45044;DHT22;30784;48.490;9.688;2023-04-03T07:21:10;5.70;51.50
45044;DHT22;30784;48.490;9.688;2023-04-03T07:23:35;5.70;51.60
45044;DHT22;30784;48.490;9.688;2023-04-03T07:26:01;5.80;51.60
45044;DHT22;30784;48.490;9.688;2023-04-03T07:28:27;5.80;51.50
45044;DHT22;30784;48.490;9.688;2023-04-03T07:31:07;5.90;51.20
45044;DHT22;30784;48.490;9.688;2023-04-03T07:33:34;5.90;51.10
45044;DHT22;30784;48.490;9.688;2023-04-03T07:36:00;5.90;51.00
45044;DHT22;30784;48.490;9.688;2023-04-03T07:38:26;6.00;51.30
45044;DHT22;30784;48.490;9.688;2023-04-03T07:40:52;6.00;51.10
45044;DHT22;30784;48.490;9.688;2023-04-03T07:43:19;6.00;51.20
45044;DHT22;30784;48.490;9.688;2023-04-03T07:45:46;6.00;51.10
45044;DHT22;30784;48.490;9.688;2023-04-03T07:48:15;6.10;51.10
45044;DHT22;30784;48.490;9.688;2023-04-03T07:50:41;6.10;50.60
45044;DHT22;30784;48.490;9.688;2023-04-03T07:53:07;6.20;50.60
45044;DHT22;30784;48.490;9.688;2023-04-03T07:55:33;6.20;50.50
45044;DHT22;30784;48.490;9.688;2023-04-03T07:57:59;6.20;50.40
45044;DHT22;30784;48.490;9.688;2023-04-03T08:00:25;6.20;50.30
45044;DHT22;30784;48.490;9.688;2023-04-03T08:02:50;6.30;50.20
45044;DHT22;30784;48.490;9.688;2023-04-03T08:05:20;6.30;50.30
45044;DHT22;30784;48.490;9.688;2023-04-03T08:07:46;6.30;50.10
45044;DHT22;30784;48.490;9.688;2023-04-03T08:10:12;6.30;50.10
45044;DHT22;30784;48.490;9.688;2023-04-03T08:12:38;6.30;50.00
45044;DHT22;30784;48.490;9.688;2023-04-03T08:15:04;6.30;50.00
45044;DHT22;30784;48.490;9.688;2023-04-03T08:17:30;6.30;49.80
45044;DHT22;30784;48.490;9.688;2023-04-03T08:19:56;6.40;49.70
45044;DHT22;30784;48.490;9.688;2023-04-03T08:22:21;6.40;49.60
45044;DHT22;30784;48.490;9.688;2023-04-03T08:24:47;6.40;49.40
45044;DHT22;30784;48.490;9.688;2023-04-03T08:27:12;6.40;49.50
45044;DHT22;30784;48.490;9.688;2023-04-03T08:29:38;6.40;49.30
45044;DHT22;30784;48.490;9.688;2023-04-03T08:32:05;6.40;49.30
45044;DHT22;30784;48.490;9.688;2023-04-03T08:34:31;6.40;49.50
45044;DHT22;30784;48.490;9.688;2023-04-03T08:37:00;6.40;49.50
45044;DHT22;30784;48.490;9.688;2023-04-03T08:39:26;6.40;49.40
45044;DHT22;30784;48.490;9.688;2023-04-03T08:41:52;6.40;49.40
45044;DHT22;30784;48.490;9.688;2023-04-03T08:44:26;6.40;49.50
45044;DHT22;30784;48.490;9.688;2023-04-03T08:49:44;6.50;49.40
45044;DHT22;30784;48.490;9.688;2023-04-03T08:52:16;6.50;49.40
45044;DHT22;30784;48.490;9.688;2023-04-03T08:54:56;6.60;49.40
45044;DHT22;30784;48.490;9.688;2023-04-03T08:57:41;6.60;49.70
45044;DHT22;30784;48.490;9.688;2023-04-03T09:00:30;6.60;48.70
45044;DHT22;30784;48.490;9.688;2023-04-03T09:02:57;6.70;49.00
45044;DHT22;30784;48.490;9.688;2023-04-03T09:05:39;6.70;49.50
45044;DHT22;30784;48.490;9.688;2023-04-03T09:08:09;6.70;48.80
45044;DHT22;30784;48.490;9.688;2023-04-03T09:10:38;6.80;48.40
45044;DHT22;30784;48.490;9.688;2023-04-03T09:13:12;6.80;48.40
45044;DHT22;30784;48.490;9.688;2023-04-03T09:15:38;6.70;48.50
45044;DHT22;30784;48.490;9.688;2023-04-03T09:18:16;6.80;48.90
45044;DHT22;30784;48.490;9.688;2023-04-03T09:26:19;6.90;48.40
45044;DHT22;30784;48.490;9.688;2023-04-03T09:28:47;6.90;48.60
45044;DHT22;30784;48.490;9.688;2023-04-03T09:31:21;6.90;48.80
45044;DHT22;30784;48.490;9.688;2023-04-03T09:33:50;7.00;48.90
45044;DHT22;30784;48.490;9.688;2023-04-03T09:36:53;7.00;48.90
45044;DHT22;30784;48.490;9.688;2023-04-03T09:39:22;7.00;49.00
45044;DHT22;30784;48.490;9.688;2023-04-03T09:42:01;7.10;48.80
45044;DHT22;30784;48.490;9.688;2023-04-03T09:44:34;7.10;48.70
45044;DHT22;30784;48.490;9.688;2023-04-03T09:49:45;7.10;48.60
45044;DHT22;30784;48.490;9.688;2023-04-03T09:52:19;7.10;48.10
45044;DHT22;30784;48.490;9.688;2023-04-03T09:54:45;7.10;48.00
45044;DHT22;30784;48.490;9.688;2023-04-03T09:57:13;7.10;47.80
45044;DHT22;30784;48.490;9.688;2023-04-03T09:59:46;7.10;47.40
45044;DHT22;30784;48.490;9.688;2023-04-03T10:02:24;7.10;47.00
45044;DHT22;30784;48.490;9.688;2023-04-03T10:04:53;7.10;47.30
45044;DHT22;30784;48.490;9.688;2023-04-03T10:07:33;7.10;47.60
45044;DHT22;30784;48.490;9.688;2023-04-03T10:10:03;7.00;47.40
45044;DHT22;30784;48.490;9.688;2023-04-03T10:12:29;7.10;47.00
45044;DHT22;30784;48.490;9.688;2023-04-03T10:15:00;7.10;46.40
45044;DHT22;30784;48.490;9.688;2023-04-03T10:17:36;7.00;46.50
45044;DHT22;30784;48.490;9.688;2023-04-03T10:28:40;7.10;47.50
45044;DHT22;30784;48.490;9.688;2023-04-03T10:34:33;7.20;47.70
45044;DHT22;30784;48.490;9.688;2023-04-03T10:45:49;7.30;47.00
45044;DHT22;30784;48.490;9.688;2023-04-03T10:48:56;7.40;47.00
45044;DHT22;30784;48.490;9.688;2023-04-03T10:51:41;7.40;47.40
45044;DHT22;30784;48.490;9.688;2023-04-03T10:54:29;7.50;47.40
45044;DHT22;30784;48.490;9.688;2023-04-03T10:57:01;7.50;47.50
45044;DHT22;30784;48.490;9.688;2023-04-03T11:02:16;7.70;46.60
45044;DHT22;30784;48.490;9.688;2023-04-03T11:04:48;7.80;46.30
45044;DHT22;30784;48.490;9.688;2023-04-03T11:07:26;7.80;46.30
45044;DHT22;30784;48.490;9.688;2023-04-03T11:09:55;7.90;46.10
45044;DHT22;30784;48.490;9.688;2023-04-03T11:12:46;7.90;45.70
45044;DHT22;30784;48.490;9.688;2023-04-03T11:15:17;7.90;46.20
45044;DHT22;30784;48.490;9.688;2023-04-03T11:17:53;7.90;45.80
45044;DHT22;30784;48.490;9.688;2023-04-03T11:22:57;7.90;45.80
45044;DHT22;30784;48.490;9.688;2023-04-03T11:25:25;7.90;45.60
45044;DHT22;30784;48.490;9.688;2023-04-03T11:27:59;7.80;45.70
45044;DHT22;30784;48.490;9.688;2023-04-03T11:33:21;7.80;45.50
45044;DHT22;30784;48.490;9.688;2023-04-03T11:35:51;7.70;45.90
45044;DHT22;30784;48.490;9.688;2023-04-03T11:38:27;7.70;45.90
45044;DHT22;30784;48.490;9.688;2023-04-03T11:40:55;7.60;45.90
45044;DHT22;30784;48.490;9.688;2023-04-03T11:43:27;7.60;46.30
45044;DHT22;30784;48.490;9.688;2023-04-03T11:46:06;7.60;46.50
45044;DHT22;30784;48.490;9.688;2023-04-03T11:53:39;7.50;46.60
45044;DHT22;30784;48.490;9.688;2023-04-03T12:01:56;7.40;46.70
45044;DHT22;30784;48.490;9.688;2023-04-03T12:04:25;7.30;46.70
45044;DHT22;30784;48.490;9.688;2023-04-03T12:07:15;7.40;46.80
45044;DHT22;30784;48.490;9.688;2023-04-03T12:12:31;7.30;46.40
45044;DHT22;30784;48.490;9.688;2023-04-03T12:20:58;7.30;46.40
45044;DHT22;30784;48.490;9.688;2023-04-03T12:23:26;7.30;46.40
45044;DHT22;30784;48.490;9.688;2023-04-03T12:26:00;7.30;46.20
45044;DHT22;30784;48.490;9.688;2023-04-03T12:28:26;7.30;46.30
45044;DHT22;30784;48.490;9.688;2023-04-03T12:30:53;7.30;46.40
45044;DHT22;30784;48.490;9.688;2023-04-03T12:36:21;7.20;46.80
45044;DHT22;30784;48.490;9.688;2023-04-03T12:39:33;7.20;46.30
45044;DHT22;30784;48.490;9.688;2023-04-03T12:44:56;7.20;46.20
45044;DHT22;30784;48.490;9.688;2023-04-03T12:47:36;7.10;46.00
45044;DHT22;30784;48.490;9.688;2023-04-03T12:50:13;7.10;46.10
45044;DHT22;30784;48.490;9.688;2023-04-03T12:52:56;7.10;46.10
45044;DHT22;30784;48.490;9.688;2023-04-03T12:55:23;7.00;46.10
45044;DHT22;30784;48.490;9.688;2023-04-03T12:57:48;7.10;46.30
45044;DHT22;30784;48.490;9.688;2023-04-03T13:00:33;7.10;46.50
45044;DHT22;30784;48.490;9.688;2023-04-03T13:03:01;7.10;46.30
45044;DHT22;30784;48.490;9.688;2023-04-03T13:05:28;7.20;46.30
45044;DHT22;30784;48.490;9.688;2023-04-03T13:08:00;7.20;46.30
45044;DHT22;30784;48.490;9.688;2023-04-03T13:10:27;7.20;46.30
45044;DHT22;30784;48.490;9.688;2023-04-03T13:13:08;7.30;46.30
45044;DHT22;30784;48.490;9.688;2023-04-03T13:16:00;7.40;46.50
45044;DHT22;30784;48.490;9.688;2023-04-03T13:18:35;7.50;46.70
45044;DHT22;30784;48.490;9.688;2023-04-03T13:21:20;7.60;46.40
45044;DHT22;30784;48.490;9.688;2023-04-03T13:23:49;7.70;45.90
45044;DHT22;30784;48.490;9.688;2023-04-03T13:26:17;7.90;45.70
45044;DHT22;30784;48.490;9.688;2023-04-03T13:28:45;8.00;45.70
45044;DHT22;30784;48.490;9.688;2023-04-03T13:31:22;8.10;45.40
45044;DHT22;30784;48.490;9.688;2023-04-03T13:34:12;8.30;45.40
45044;DHT22;30784;48.490;9.688;2023-04-03T13:36:57;8.40;45.70
45044;DHT22;30784;48.490;9.688;2023-04-03T13:39:30;8.50;45.00
45044;DHT22;30784;48.490;9.688;2023-04-03T13:41:59;8.60;44.70
45044;DHT22;30784;48.490;9.688;2023-04-03T13:44:36;8.70;44.20
45044;DHT22;30784;48.490;9.688;2023-04-03T13:47:15;8.80;44.30
45044;DHT22;30784;48.490;9.688;2023-04-03T13:52:59;8.90;44.50
45044;DHT22;30784;48.490;9.688;2023-04-03T13:55:31;8.90;43.30
45044;DHT22;30784;48.490;9.688;2023-04-03T13:58:03;9.00;43.00
45044;DHT22;30784;48.490;9.688;2023-04-03T14:01:01;8.90;42.80
45044;DHT22;30784;48.490;9.688;2023-04-03T14:03:52;8.90;42.70
45044;DHT22;30784;48.490;9.688;2023-04-03T14:06:18;8.90;42.80
45044;DHT22;30784;48.490;9.688;2023-04-03T14:08:44;8.90;42.50
45044;DHT22;30784;48.490;9.688;2023-04-03T14:11:37;8.80;42.70
45044;DHT22;30784;48.490;9.688;2023-04-03T14:14:11;8.70;43.20
45044;DHT22;30784;48.490;9.688;2023-04-03T14:16:40;8.70;42.80
45044;DHT22;30784;48.490;9.688;2023-04-03T14:22:31;8.60;42.60
45044;DHT22;30784;48.490;9.688;2023-04-03T14:24:59;8.60;42.20
45044;DHT22;30784;48.490;9.688;2023-04-03T14:27:36;8.60;42.20
45044;DHT22;30784;48.490;9.688;2023-04-03T14:30:07;8.50;42.10
45044;DHT22;30784;48.490;9.688;2023-04-03T14:32:32;8.50;42.40
45044;DHT22;30784;48.490;9.688;2023-04-03T14:34:58;8.60;42.40
45044;DHT22;30784;48.490;9.688;2023-04-03T14:37:27;8.60;42.30
45044;DHT22;30784;48.490;9.688;2023-04-03T14:39:56;8.60;42.10
45044;DHT22;30784;48.490;9.688;2023-04-03T14:42:29;8.80;42.30
45044;DHT22;30784;48.490;9.688;2023-04-03T14:44:57;8.70;41.50
45044;DHT22;30784;48.490;9.688;2023-04-03T14:47:28;8.70;41.60
45044;DHT22;30784;48.490;9.688;2023-04-03T14:49:54;8.80;41.20
45044;DHT22;30784;48.490;9.688;2023-04-03T14:52:28;8.80;41.30
45044;DHT22;30784;48.490;9.688;2023-04-03T14:54:55;8.80;41.20
45044;DHT22;30784;48.490;9.688;2023-04-03T14:57:24;8.70;40.90
45044;DHT22;30784;48.490;9.688;2023-04-03T14:59:50;8.70;41.10
45044;DHT22;30784;48.490;9.688;2023-04-03T15:02:30;8.70;41.00
45044;DHT22;30784;48.490;9.688;2023-04-03T15:04:57;8.60;40.80
45044;DHT22;30784;48.490;9.688;2023-04-03T15:07:25;8.70;40.50
45044;DHT22;30784;48.490;9.688;2023-04-03T15:09:52;8.60;40.40
45044;DHT22;30784;48.490;9.688;2023-04-03T15:12:17;8.60;40.70
45044;DHT22;30784;48.490;9.688;2023-04-03T15:14:43;8.60;40.80
45044;DHT22;30784;48.490;9.688;2023-04-03T15:17:15;8.60;40.90
45044;DHT22;30784;48.490;9.688;2023-04-03T15:19:42;8.50;41.10
45044;DHT22;30784;48.490;9.688;2023-04-03T15:22:13;8.50;41.00
45044;DHT22;30784;48.490;9.688;2023-04-03T15:24:39;8.50;41.00
45044;DHT22;30784;48.490;9.688;2023-04-03T15:27:05;8.40;41.00
45044;DHT22;30784;48.490;9.688;2023-04-03T15:29:31;8.40;41.00
45044;DHT22;30784;48.490;9.688;2023-04-03T15:31:56;8.40;41.00
45044;DHT22;30784;48.490;9.688;2023-04-03T15:34:22;8.40;40.70
45044;DHT22;30784;48.490;9.688;2023-04-03T15:36:47;8.40;40.90
45044;DHT22;30784;48.490;9.688;2023-04-03T15:39:13;8.30;40.80
45044;DHT22;30784;48.490;9.688;2023-04-03T15:41:38;8.30;41.00
45044;DHT22;30784;48.490;9.688;2023-04-03T15:44:04;8.30;40.90
45044;DHT22;30784;48.490;9.688;2023-04-03T15:46:30;8.30;40.60
45044;DHT22;30784;48.490;9.688;2023-04-03T15:48:55;8.20;40.60
45044;DHT22;30784;48.490;9.688;2023-04-03T15:51:21;8.20;40.40
45044;DHT22;30784;48.490;9.688;2023-04-03T15:53:46;8.20;40.50
45044;DHT22;30784;48.490;9.688;2023-04-03T15:56:12;8.10;40.40
45044;DHT22;30784;48.490;9.688;2023-04-03T15:58:37;8.10;40.50
45044;DHT22;30784;48.490;9.688;2023-04-03T16:01:03;8.10;40.50
45044;DHT22;30784;48.490;9.688;2023-04-03T16:03:29;8.10;40.60
45044;DHT22;30784;48.490;9.688;2023-04-03T16:05:55;8.10;40.40
45044;DHT22;30784;48.490;9.688;2023-04-03T16:08:20;8.10;40.10
45044;DHT22;30784;48.490;9.688;2023-04-03T16:10:46;8.10;40.40
45044;DHT22;30784;48.490;9.688;2023-04-03T16:13:13;8.00;40.20
45044;DHT22;30784;48.490;9.688;2023-04-03T16:15:38;8.00;40.20
45044;DHT22;30784;48.490;9.688;2023-04-03T16:18:04;8.00;40.10
45044;DHT22;30784;48.490;9.688;2023-04-03T16:20:31;8.00;40.00
45044;DHT22;30784;48.490;9.688;2023-04-03T16:22:58;8.00;39.80
45044;DHT22;30784;48.490;9.688;2023-04-03T16:25:25;8.00;40.10
45044;DHT22;30784;48.490;9.688;2023-04-03T16:27:51;8.00;39.80
45044;DHT22;30784;48.490;9.688;2023-04-03T16:30:17;8.00;39.80
45044;DHT22;30784;48.490;9.688;2023-04-03T16:32:43;8.00;39.50
45044;DHT22;30784;48.490;9.688;2023-04-03T16:35:09;8.00;39.60
45044;DHT22;30784;48.490;9.688;2023-04-03T16:37:36;7.90;39.40
45044;DHT22;30784;48.490;9.688;2023-04-03T16:40:02;7.90;39.60
45044;DHT22;30784;48.490;9.688;2023-04-03T16:42:28;7.90;39.40
45044;DHT22;30784;48.490;9.688;2023-04-03T16:44:54;7.90;39.40
45044;DHT22;30784;48.490;9.688;2023-04-03T16:47:19;7.90;39.20
45044;DHT22;30784;48.490;9.688;2023-04-03T16:49:46;7.80;39.40
45044;DHT22;30784;48.490;9.688;2023-04-03T16:52:12;7.80;39.50
45044;DHT22;30784;48.490;9.688;2023-04-03T16:54:37;7.80;39.40
45044;DHT22;30784;48.490;9.688;2023-04-03T16:57:03;7.80;39.60
45044;DHT22;30784;48.490;9.688;2023-04-03T16:59:28;7.80;39.60
45044;DHT22;30784;48.490;9.688;2023-04-03T17:01:54;7.70;39.30
45044;DHT22;30784;48.490;9.688;2023-04-03T17:04:20;7.70;39.40
45044;DHT22;30784;48.490;9.688;2023-04-03T17:06:45;7.70;39.40
45044;DHT22;30784;48.490;9.688;2023-04-03T17:09:11;7.70;39.40
45044;DHT22;30784;48.490;9.688;2023-04-03T17:11:37;7.70;39.30
45044;DHT22;30784;48.490;9.688;2023-04-03T17:14:03;7.70;39.30
45044;DHT22;30784;48.490;9.688;2023-04-03T17:16:29;7.70;39.30